sensor_id;sensor_type;location;lat;lon;timestamp;temperature;humidity
26342;DHT22;14054;50.108;8.640;2023-02-23T00:01:27;9.20;99.90
26342;DHT22;14054;50.108;8.640;2023-02-23T00:03:56;9.20;99.90
26342;DHT22;14054;50.108;8.640;2023-02-23T00:06:22;9.20;99.90
26342;DHT22;14054;50.108;8.640;2023-02-23T00:08:48;9.30;99.90
26342;DHT22;14054;50.108;8.640;2023-02-23T00:11:16;9.20;99.90
26342;DHT22;14054;50.108;8.640;2023-02-23T00:13:42;9.20;99.90
26342;DHT22;14054;50.108;8.640;2023-02-23T00:16:14;9.20;99.90
26342;DHT22;14054;50.108;8.640;2023-02-23T00:18:47;9.20;99.90
26342;DHT22;14054;50.108;8.640;2023-02-23T00:21:25;9.30;99.90
26342;DHT22;14054;50.108;8.640;2023-02-23T00:23:54;9.30;99.90
26342;DHT22;14054;50.108;8.640;2023-02-23T00:26:22;9.30;99.90
26342;DHT22;14054;50.108;8.640;2023-02-23T00:28:48;9.30;99.90
26342;DHT22;14054;50.108;8.640;2023-02-23T00:31:15;9.40;99.90
26342;DHT22;14054;50.108;8.640;2023-02-23T00:33:40;9.40;99.90
26342;DHT22;14054;50.108;8.640;2023-02-23T00:36:10;9.40;99.90
26342;DHT22;14054;50.108;8.640;2023-02-23T00:38:37;9.40;99.90
26342;DHT22;14054;50.108;8.640;2023-02-23T00:43:33;9.40;99.90
26342;DHT22;14054;50.108;8.640;2023-02-23T00:45:58;9.40;99.90
26342;DHT22;14054;50.108;8.640;2023-02-23T00:48:24;9.30;99.90
26342;DHT22;14054;50.108;8.640;2023-02-23T00:50:56;9.40;99.90
26342;DHT22;14054;50.108;8.640;2023-02-23T00:53:21;9.30;99.90
26342;DHT22;14054;50.108;8.640;2023-02-23T00:55:47;9.30;99.90
26342;DHT22;14054;50.108;8.640;2023-02-23T00:58:12;9.30;99.90
26342;DHT22;14054;50.108;8.640;2023-02-23T01:00:38;9.30;99.90
26342;DHT22;14054;50.108;8.640;2023-02-23T01:03:06;9.30;99.90
26342;DHT22;14054;50.108;8.640;2023-02-23T01:05:35;9.30;99.90
26342;DHT22;14054;50.108;8.640;2023-02-23T01:08:00;9.30;99.90
26342;DHT22;14054;50.108;8.640;2023-02-23T01:10:25;9.30;99.90
26342;DHT22;14054;50.108;8.640;2023-02-23T01:12:51;9.30;99.90
26342;DHT22;14054;50.108;8.640;2023-02-23T01:15:18;9.30;99.90
26342;DHT22;14054;50.108;8.640;2023-02-23T01:17:44;9.30;99.90
26342;DHT22;14054;50.108;8.640;2023-02-23T01:20:11;9.30;99.90
26342;DHT22;14054;50.108;8.640;2023-02-23T01:22:43;9.30;99.90
26342;DHT22;14054;50.108;8.640;2023-02-23T01:25:08;9.40;99.90
26342;DHT22;14054;50.108;8.640;2023-02-23T01:27:37;9.30;99.90
26342;DHT22;14054;50.108;8.640;2023-02-23T01:30:02;9.40;99.90
26342;DHT22;14054;50.108;8.640;2023-02-23T01:32:28;9.40;99.90
26342;DHT22;14054;50.108;8.640;2023-02-23T01:34:53;9.40;99.90
26342;DHT22;14054;50.108;8.640;2023-02-23T01:37:19;9.40;99.90
26342;DHT22;14054;50.108;8.640;2023-02-23T01:39:44;9.30;99.90
26342;DHT22;14054;50.108;8.640;2023-02-23T01:42:13;9.30;99.90
26342;DHT22;14054;50.108;8.640;2023-02-23T01:47:04;9.30;99.90
26342;DHT22;14054;50.108;8.640;2023-02-23T01:49:29;9.30;99.90
26342;DHT22;14054;50.108;8.640;2023-02-23T01:52:10;9.30;99.90
26342;DHT22;14054;50.108;8.640;2023-02-23T01:54:42;9.20;99.90
26342;DHT22;14054;50.108;8.640;2023-02-23T01:57:10;9.20;99.90
26342;DHT22;14054;50.108;8.640;2023-02-23T01:59:40;9.20;99.90
26342;DHT22;14054;50.108;8.640;2023-02-23T02:02:06;9.10;99.90
26342;DHT22;14054;50.108;8.640;2023-02-23T02:04:36;9.10;99.90
26342;DHT22;14054;50.108;8.640;2023-02-23T02:07:12;9.00;99.90
26342;DHT22;14054;50.108;8.640;2023-02-23T02:09:39;9.00;99.90
26342;DHT22;14054;50.108;8.640;2023-02-23T02:12:10;9.00;99.90
26342;DHT22;14054;50.108;8.640;2023-02-23T02:14:36;9.00;99.90
26342;DHT22;14054;50.108;8.640;2023-02-23T02:25:11;8.90;99.90
26342;DHT22;14054;50.108;8.640;2023-02-23T02:30:32;8.90;99.90
26342;DHT22;14054;50.108;8.640;2023-02-23T02:41:02;8.90;99.90
26342;DHT22;14054;50.108;8.640;2023-02-23T02:46:12;8.90;99.90
26342;DHT22;14054;50.108;8.640;2023-02-23T02:48:45;8.90;99.90
26342;DHT22;14054;50.108;8.640;2023-02-23T02:51:15;8.90;99.90
26342;DHT22;14054;50.108;8.640;2023-02-23T02:53:50;8.90;99.90
26342;DHT22;14054;50.108;8.640;2023-02-23T02:56:17;8.90;99.90
26342;DHT22;14054;50.108;8.640;2023-02-23T02:58:44;8.90;99.90
26342;DHT22;14054;50.108;8.640;2023-02-23T03:01:12;8.90;99.90
26342;DHT22;14054;50.108;8.640;2023-02-23T03:03:57;8.90;99.90
26342;DHT22;14054;50.108;8.640;2023-02-23T03:06:44;8.90;99.90
26342;DHT22;14054;50.108;8.640;2023-02-23T03:09:32;8.90;99.90
26342;DHT22;14054;50.108;8.640;2023-02-23T03:12:24;9.00;99.90
26342;DHT22;14054;50.108;8.640;2023-02-23T03:17:57;8.90;99.90
26342;DHT22;14054;50.108;8.640;2023-02-23T03:20:48;9.00;99.90
26342;DHT22;14054;50.108;8.640;2023-02-23T03:32:14;9.00;99.90
26342;DHT22;14054;50.108;8.640;2023-02-23T03:35:02;9.00;99.90
26342;DHT22;14054;50.108;8.640;2023-02-23T03:37:53;9.00;99.90
26342;DHT22;14054;50.108;8.640;2023-02-23T03:40:40;9.10;99.90
26342;DHT22;14054;50.108;8.640;2023-02-23T03:43:26;9.00;99.90
26342;DHT22;14054;50.108;8.640;2023-02-23T03:46:13;9.10;99.90
26342;DHT22;14054;50.108;8.640;2023-02-23T03:48:58;9.10;99.90
26342;DHT22;14054;50.108;8.640;2023-02-23T03:51:44;9.10;99.90
26342;DHT22;14054;50.108;8.640;2023-02-23T03:54:31;9.10;99.90
26342;DHT22;14054;50.108;8.640;2023-02-23T03:57:16;9.10;99.90
26342;DHT22;14054;50.108;8.640;2023-02-23T04:00:02;9.10;99.90
26342;DHT22;14054;50.108;8.640;2023-02-23T04:02:49;9.10;99.90
26342;DHT22;14054;50.108;8.640;2023-02-23T04:05:35;9.10;99.90
26342;DHT22;14054;50.108;8.640;2023-02-23T04:08:21;9.10;99.90
26342;DHT22;14054;50.108;8.640;2023-02-23T04:11:11;9.10;99.90
26342;DHT22;14054;50.108;8.640;2023-02-23T04:13:57;9.10;99.90
26342;DHT22;14054;50.108;8.640;2023-02-23T04:16:24;9.10;99.90
26342;DHT22;14054;50.108;8.640;2023-02-23T04:18:50;9.10;99.90
26342;DHT22;14054;50.108;8.640;2023-02-23T04:21:16;9.10;99.90
26342;DHT22;14054;50.108;8.640;2023-02-23T04:23:41;9.10;99.90
26342;DHT22;14054;50.108;8.640;2023-02-23T04:26:07;9.20;99.90
26342;DHT22;14054;50.108;8.640;2023-02-23T04:28:32;9.10;99.90
26342;DHT22;14054;50.108;8.640;2023-02-23T04:30:58;9.10;99.90
26342;DHT22;14054;50.108;8.640;2023-02-23T04:33:24;9.10;99.90
26342;DHT22;14054;50.108;8.640;2023-02-23T04:35:52;9.10;99.90
26342;DHT22;14054;50.108;8.640;2023-02-23T04:38:18;9.20;99.90
26342;DHT22;14054;50.108;8.640;2023-02-23T04:40:44;9.10;99.90
26342;DHT22;14054;50.108;8.640;2023-02-23T04:43:10;9.20;99.90
26342;DHT22;14054;50.108;8.640;2023-02-23T04:45:36;9.20;99.90
26342;DHT22;14054;50.108;8.640;2023-02-23T04:48:01;9.20;99.90
26342;DHT22;14054;50.108;8.640;2023-02-23T04:50:27;9.20;99.90
26342;DHT22;14054;50.108;8.640;2023-02-23T04:52:52;9.20;99.90
26342;DHT22;14054;50.108;8.640;2023-02-23T04:55:19;9.20;99.90
26342;DHT22;14054;50.108;8.640;2023-02-23T04:57:45;9.20;99.90
26342;DHT22;14054;50.108;8.640;2023-02-23T05:00:11;9.20;99.90
26342;DHT22;14054;50.108;8.640;2023-02-23T05:02:37;9.20;99.90
26342;DHT22;14054;50.108;8.640;2023-02-23T05:05:02;9.20;99.90
26342;DHT22;14054;50.108;8.640;2023-02-23T05:07:28;9.20;99.90
26342;DHT22;14054;50.108;8.640;2023-02-23T05:09:53;9.20;99.90
26342;DHT22;14054;50.108;8.640;2023-02-23T05:12:18;9.20;99.90
26342;DHT22;14054;50.108;8.640;2023-02-23T05:14:44;9.20;99.90
26342;DHT22;14054;50.108;8.640;2023-02-23T05:17:10;9.30;99.90
26342;DHT22;14054;50.108;8.640;2023-02-23T05:19:35;9.20;99.90
26342;DHT22;14054;50.108;8.640;2023-02-23T05:22:01;9.20;99.90
26342;DHT22;14054;50.108;8.640;2023-02-23T05:24:27;9.20;99.90
26342;DHT22;14054;50.108;8.640;2023-02-23T05:26:52;9.20;99.90
26342;DHT22;14054;50.108;8.640;2023-02-23T05:29:18;9.20;99.90
26342;DHT22;14054;50.108;8.640;2023-02-23T05:31:44;9.20;99.90
26342;DHT22;14054;50.108;8.640;2023-02-23T05:34:10;9.20;99.90
26342;DHT22;14054;50.108;8.640;2023-02-23T05:36:35;9.30;99.90
26342;DHT22;14054;50.108;8.640;2023-02-23T05:39:02;9.20;99.90
26342;DHT22;14054;50.108;8.640;2023-02-23T05:41:27;9.20;99.90
26342;DHT22;14054;50.108;8.640;2023-02-23T05:43:53;9.20;99.90
26342;DHT22;14054;50.108;8.640;2023-02-23T05:46:20;9.10;99.90
26342;DHT22;14054;50.108;8.640;2023-02-23T05:48:46;9.10;99.90
26342;DHT22;14054;50.108;8.640;2023-02-23T05:51:12;9.10;99.90
26342;DHT22;14054;50.108;8.640;2023-02-23T05:53:38;9.10;99.90
26342;DHT22;14054;50.108;8.640;2023-02-23T05:56:04;9.10;99.90
26342;DHT22;14054;50.108;8.640;2023-02-23T05:58:30;9.10;99.90
26342;DHT22;14054;50.108;8.640;2023-02-23T06:00:55;9.10;99.90
26342;DHT22;14054;50.108;8.640;2023-02-23T06:03:21;9.10;99.90
26342;DHT22;14054;50.108;8.640;2023-02-23T06:05:50;9.10;99.90
26342;DHT22;14054;50.108;8.640;2023-02-23T06:08:16;9.10;99.90
26342;DHT22;14054;50.108;8.640;2023-02-23T06:10:41;9.10;99.90
26342;DHT22;14054;50.108;8.640;2023-02-23T06:13:07;9.10;99.90
26342;DHT22;14054;50.108;8.640;2023-02-23T06:15:32;9.10;99.90
26342;DHT22;14054;50.108;8.640;2023-02-23T06:17:58;9.10;99.90
26342;DHT22;14054;50.108;8.640;2023-02-23T06:20:23;9.20;99.90
26342;DHT22;14054;50.108;8.640;2023-02-23T06:22:48;9.20;99.90
26342;DHT22;14054;50.108;8.640;2023-02-23T06:25:14;9.10;99.90
26342;DHT22;14054;50.108;8.640;2023-02-23T06:27:39;9.20;99.90
26342;DHT22;14054;50.108;8.640;2023-02-23T06:30:06;9.20;99.90
26342;DHT22;14054;50.108;8.640;2023-02-23T06:32:32;9.20;99.90
26342;DHT22;14054;50.108;8.640;2023-02-23T06:34:57;9.20;99.90
26342;DHT22;14054;50.108;8.640;2023-02-23T06:37:23;9.20;99.90
26342;DHT22;14054;50.108;8.640;2023-02-23T06:39:48;9.20;99.90
26342;DHT22;14054;50.108;8.640;2023-02-23T06:42:15;9.20;99.90
26342;DHT22;14054;50.108;8.640;2023-02-23T06:44:40;9.20;99.90
26342;DHT22;14054;50.108;8.640;2023-02-23T06:47:05;9.20;99.90
26342;DHT22;14054;50.108;8.640;2023-02-23T06:49:31;9.20;99.90
26342;DHT22;14054;50.108;8.640;2023-02-23T06:51:56;9.30;99.90
26342;DHT22;14054;50.108;8.640;2023-02-23T06:54:22;9.30;99.90
26342;DHT22;14054;50.108;8.640;2023-02-23T06:56:47;9.30;99.90
26342;DHT22;14054;50.108;8.640;2023-02-23T06:59:14;9.40;99.90
26342;DHT22;14054;50.108;8.640;2023-02-23T07:01:39;9.40;99.90
26342;DHT22;14054;50.108;8.640;2023-02-23T07:04:06;9.40;99.90
26342;DHT22;14054;50.108;8.640;2023-02-23T07:06:32;9.40;99.90
26342;DHT22;14054;50.108;8.640;2023-02-23T07:08:57;9.40;99.90
26342;DHT22;14054;50.108;8.640;2023-02-23T07:11:23;9.50;99.90
26342;DHT22;14054;50.108;8.640;2023-02-23T07:13:48;9.50;99.90
26342;DHT22;14054;50.108;8.640;2023-02-23T07:16:14;9.50;99.90
26342;DHT22;14054;50.108;8.640;2023-02-23T07:18:40;9.50;99.90
26342;DHT22;14054;50.108;8.640;2023-02-23T07:21:06;9.50;99.90
26342;DHT22;14054;50.108;8.640;2023-02-23T07:23:32;9.50;99.90
26342;DHT22;14054;50.108;8.640;2023-02-23T07:25:58;9.50;99.90
26342;DHT22;14054;50.108;8.640;2023-02-23T07:28:25;9.60;99.90
26342;DHT22;14054;50.108;8.640;2023-02-23T07:30:54;9.60;99.90
26342;DHT22;14054;50.108;8.640;2023-02-23T07:33:19;9.60;99.90
26342;DHT22;14054;50.108;8.640;2023-02-23T07:35:45;9.60;99.90
26342;DHT22;14054;50.108;8.640;2023-02-23T07:38:10;9.60;99.90
26342;DHT22;14054;50.108;8.640;2023-02-23T07:40:37;9.60;99.90
26342;DHT22;14054;50.108;8.640;2023-02-23T07:43:03;9.70;99.90
26342;DHT22;14054;50.108;8.640;2023-02-23T07:45:29;9.70;99.90
26342;DHT22;14054;50.108;8.640;2023-02-23T07:47:54;9.80;99.90
26342;DHT22;14054;50.108;8.640;2023-02-23T07:50:20;9.80;99.90
26342;DHT22;14054;50.108;8.640;2023-02-23T07:52:45;9.80;99.90
26342;DHT22;14054;50.108;8.640;2023-02-23T07:55:11;9.90;99.90
26342;DHT22;14054;50.108;8.640;2023-02-23T07:57:36;9.90;99.90
26342;DHT22;14054;50.108;8.640;2023-02-23T08:00:03;10.00;99.90
26342;DHT22;14054;50.108;8.640;2023-02-23T08:02:29;10.00;99.90
26342;DHT22;14054;50.108;8.640;2023-02-23T08:04:56;10.00;99.90
26342;DHT22;14054;50.108;8.640;2023-02-23T08:07:21;10.00;99.90
26342;DHT22;14054;50.108;8.640;2023-02-23T08:09:47;10.00;99.90
26342;DHT22;14054;50.108;8.640;2023-02-23T08:12:13;10.00;99.90
26342;DHT22;14054;50.108;8.640;2023-02-23T08:14:40;10.00;99.90
26342;DHT22;14054;50.108;8.640;2023-02-23T08:17:05;10.00;99.90
26342;DHT22;14054;50.108;8.640;2023-02-23T08:19:31;10.00;99.90
26342;DHT22;14054;50.108;8.640;2023-02-23T08:21:56;10.00;99.90
26342;DHT22;14054;50.108;8.640;2023-02-23T08:24:23;10.10;99.90
26342;DHT22;14054;50.108;8.640;2023-02-23T08:26:49;10.10;99.90
26342;DHT22;14054;50.108;8.640;2023-02-23T08:29:14;10.00;99.90
26342;DHT22;14054;50.108;8.640;2023-02-23T08:31:40;10.00;99.90
26342;DHT22;14054;50.108;8.640;2023-02-23T08:34:05;10.00;99.90
26342;DHT22;14054;50.108;8.640;2023-02-23T08:36:31;10.00;99.90
26342;DHT22;14054;50.108;8.640;2023-02-23T08:38:56;10.10;99.90
26342;DHT22;14054;50.108;8.640;2023-02-23T08:41:22;10.00;99.90
26342;DHT22;14054;50.108;8.640;2023-02-23T08:43:47;10.10;99.90
26342;DHT22;14054;50.108;8.640;2023-02-23T08:46:13;10.00;99.90
26342;DHT22;14054;50.108;8.640;2023-02-23T08:48:38;10.00;99.90
26342;DHT22;14054;50.108;8.640;2023-02-23T08:51:05;10.00;99.90
26342;DHT22;14054;50.108;8.640;2023-02-23T08:53:30;10.00;99.90
26342;DHT22;14054;50.108;8.640;2023-02-23T08:55:57;10.20;99.90
26342;DHT22;14054;50.108;8.640;2023-02-23T08:58:22;10.30;99.90
26342;DHT22;14054;50.108;8.640;2023-02-23T09:00:48;10.40;99.90
26342;DHT22;14054;50.108;8.640;2023-02-23T09:03:13;10.50;99.90
26342;DHT22;14054;50.108;8.640;2023-02-23T09:05:38;10.50;99.90
26342;DHT22;14054;50.108;8.640;2023-02-23T09:08:04;10.50;99.90
26342;DHT22;14054;50.108;8.640;2023-02-23T09:10:29;10.40;99.90
26342;DHT22;14054;50.108;8.640;2023-02-23T09:12:56;10.40;99.90
26342;DHT22;14054;50.108;8.640;2023-02-23T09:15:21;10.30;99.90
26342;DHT22;14054;50.108;8.640;2023-02-23T09:17:47;10.40;99.90
26342;DHT22;14054;50.108;8.640;2023-02-23T09:20:13;10.40;99.90
26342;DHT22;14054;50.108;8.640;2023-02-23T09:22:40;10.50;99.90
26342;DHT22;14054;50.108;8.640;2023-02-23T09:25:14;10.50;99.90
26342;DHT22;14054;50.108;8.640;2023-02-23T09:27:42;10.50;99.90
26342;DHT22;14054;50.108;8.640;2023-02-23T09:30:08;10.60;99.90
26342;DHT22;14054;50.108;8.640;2023-02-23T09:32:34;10.60;99.90
26342;DHT22;14054;50.108;8.640;2023-02-23T09:35:00;10.70;99.90
26342;DHT22;14054;50.108;8.640;2023-02-23T09:37:25;10.60;99.90
26342;DHT22;14054;50.108;8.640;2023-02-23T09:39:51;10.70;99.90
26342;DHT22;14054;50.108;8.640;2023-02-23T09:42:29;10.70;99.90
26342;DHT22;14054;50.108;8.640;2023-02-23T09:47:45;10.60;99.90
26342;DHT22;14054;50.108;8.640;2023-02-23T09:50:16;10.70;99.90
26342;DHT22;14054;50.108;8.640;2023-02-23T09:52:43;10.70;99.90
26342;DHT22;14054;50.108;8.640;2023-02-23T09:55:09;10.80;99.90
26342;DHT22;14054;50.108;8.640;2023-02-23T09:57:37;10.90;99.90
26342;DHT22;14054;50.108;8.640;2023-02-23T10:00:09;11.10;99.90
26342;DHT22;14054;50.108;8.640;2023-02-23T10:02:37;11.10;99.90
26342;DHT22;14054;50.108;8.640;2023-02-23T10:05:05;11.30;99.90
26342;DHT22;14054;50.108;8.640;2023-02-23T10:10:46;11.70;99.90
26342;DHT22;14054;50.108;8.640;2023-02-23T10:13:14;11.90;99.90
26342;DHT22;14054;50.108;8.640;2023-02-23T10:20:49;12.20;99.90
26342;DHT22;14054;50.108;8.640;2023-02-23T10:23:26;12.30;99.90
26342;DHT22;14054;50.108;8.640;2023-02-23T10:25:54;12.20;99.90
26342;DHT22;14054;50.108;8.640;2023-02-23T10:28:23;12.10;99.90
26342;DHT22;14054;50.108;8.640;2023-02-23T10:30:49;12.40;99.90
26342;DHT22;14054;50.108;8.640;2023-02-23T10:33:21;12.40;99.90
26342;DHT22;14054;50.108;8.640;2023-02-23T10:35:49;12.40;99.90
26342;DHT22;14054;50.108;8.640;2023-02-23T10:38:17;12.30;99.90
26342;DHT22;14054;50.108;8.640;2023-02-23T10:40:44;12.30;99.90
26342;DHT22;14054;50.108;8.640;2023-02-23T10:43:10;12.30;99.90
26342;DHT22;14054;50.108;8.640;2023-02-23T10:45:38;12.20;99.90
26342;DHT22;14054;50.108;8.640;2023-02-23T10:48:12;12.20;99.90
26342;DHT22;14054;50.108;8.640;2023-02-23T10:50:40;12.10;99.90
26342;DHT22;14054;50.108;8.640;2023-02-23T10:53:12;12.00;99.90
26342;DHT22;14054;50.108;8.640;2023-02-23T10:55:40;12.10;99.90
26342;DHT22;14054;50.108;8.640;2023-02-23T10:58:11;12.10;99.90
26342;DHT22;14054;50.108;8.640;2023-02-23T11:00:49;12.10;99.90
26342;DHT22;14054;50.108;8.640;2023-02-23T11:03:16;12.20;99.90
26342;DHT22;14054;50.108;8.640;2023-02-23T11:05:47;12.30;99.90
26342;DHT22;14054;50.108;8.640;2023-02-23T11:10:40;12.60;99.90
26342;DHT22;14054;50.108;8.640;2023-02-23T11:13:07;12.60;99.90
26342;DHT22;14054;50.108;8.640;2023-02-23T11:15:45;12.70;99.90
26342;DHT22;14054;50.108;8.640;2023-02-23T11:18:22;12.80;99.90
26342;DHT22;14054;50.108;8.640;2023-02-23T11:20:49;12.80;99.90
26342;DHT22;14054;50.108;8.640;2023-02-23T11:23:22;12.80;99.90
26342;DHT22;14054;50.108;8.640;2023-02-23T11:25:50;12.90;99.90
26342;DHT22;14054;50.108;8.640;2023-02-23T11:28:17;12.90;99.90
26342;DHT22;14054;50.108;8.640;2023-02-23T11:30:45;13.00;99.90
26342;DHT22;14054;50.108;8.640;2023-02-23T11:33:13;13.10;99.90
26342;DHT22;14054;50.108;8.640;2023-02-23T11:35:40;13.00;99.90
26342;DHT22;14054;50.108;8.640;2023-02-23T11:38:26;13.20;99.90
26342;DHT22;14054;50.108;8.640;2023-02-23T11:41:05;13.40;99.90
26342;DHT22;14054;50.108;8.640;2023-02-23T11:43:31;13.60;99.90
26342;DHT22;14054;50.108;8.640;2023-02-23T11:45:57;13.80;99.90
26342;DHT22;14054;50.108;8.640;2023-02-23T11:51:07;16.80;99.90
26342;DHT22;14054;50.108;8.640;2023-02-23T11:53:35;16.90;99.90
26342;DHT22;14054;50.108;8.640;2023-02-23T11:56:01;18.20;99.90
26342;DHT22;14054;50.108;8.640;2023-02-23T11:58:39;19.00;99.90
26342;DHT22;14054;50.108;8.640;2023-02-23T12:01:14;19.40;99.90
26342;DHT22;14054;50.108;8.640;2023-02-23T12:06:24;18.10;99.90
26342;DHT22;14054;50.108;8.640;2023-02-23T12:08:51;16.60;99.90
26342;DHT22;14054;50.108;8.640;2023-02-23T12:11:21;15.50;99.90
26342;DHT22;14054;50.108;8.640;2023-02-23T12:13:59;14.80;99.90
26342;DHT22;14054;50.108;8.640;2023-02-23T12:16:34;14.30;99.90
26342;DHT22;14054;50.108;8.640;2023-02-23T12:21:38;13.80;99.90
26342;DHT22;14054;50.108;8.640;2023-02-23T12:24:17;13.60;99.90
26342;DHT22;14054;50.108;8.640;2023-02-23T12:26:50;13.50;99.90
26342;DHT22;14054;50.108;8.640;2023-02-23T12:29:37;13.50;99.90
26342;DHT22;14054;50.108;8.640;2023-02-23T12:32:13;13.50;99.90
26342;DHT22;14054;50.108;8.640;2023-02-23T12:34:51;13.70;99.90
26342;DHT22;14054;50.108;8.640;2023-02-23T12:37:25;13.80;99.90
26342;DHT22;14054;50.108;8.640;2023-02-23T12:39:55;14.00;99.90
26342;DHT22;14054;50.108;8.640;2023-02-23T12:45:00;13.80;99.90
26342;DHT22;14054;50.108;8.640;2023-02-23T12:47:41;13.90;99.90
26342;DHT22;14054;50.108;8.640;2023-02-23T12:52:56;14.00;99.90
26342;DHT22;14054;50.108;8.640;2023-02-23T12:55:35;13.90;99.90
26342;DHT22;14054;50.108;8.640;2023-02-23T12:58:19;13.40;99.90
26342;DHT22;14054;50.108;8.640;2023-02-23T13:03:16;13.20;99.90
26342;DHT22;14054;50.108;8.640;2023-02-23T13:06:03;13.40;99.90
26342;DHT22;14054;50.108;8.640;2023-02-23T13:08:36;13.10;99.90
26342;DHT22;14054;50.108;8.640;2023-02-23T13:11:20;13.00;99.90
26342;DHT22;14054;50.108;8.640;2023-02-23T13:13:54;12.90;99.90
26342;DHT22;14054;50.108;8.640;2023-02-23T13:18:59;12.80;99.90
26342;DHT22;14054;50.108;8.640;2023-02-23T13:24:23;12.70;99.90
26342;DHT22;14054;50.108;8.640;2023-02-23T13:27:00;12.70;99.90
26342;DHT22;14054;50.108;8.640;2023-02-23T13:29:31;12.60;99.90
26342;DHT22;14054;50.108;8.640;2023-02-23T13:32:02;12.50;99.90
26342;DHT22;14054;50.108;8.640;2023-02-23T13:34:30;12.40;99.90
26342;DHT22;14054;50.108;8.640;2023-02-23T13:36:57;12.40;99.90
26342;DHT22;14054;50.108;8.640;2023-02-23T13:39:27;12.40;99.90
26342;DHT22;14054;50.108;8.640;2023-02-23T13:42:02;12.40;99.90
26342;DHT22;14054;50.108;8.640;2023-02-23T13:44:33;12.60;99.90
26342;DHT22;14054;50.108;8.640;2023-02-23T13:47:05;12.60;99.90
26342;DHT22;14054;50.108;8.640;2023-02-23T13:49:36;12.70;99.90
26342;DHT22;14054;50.108;8.640;2023-02-23T13:52:26;12.80;99.90
26342;DHT22;14054;50.108;8.640;2023-02-23T13:54:54;12.90;99.90
26342;DHT22;14054;50.108;8.640;2023-02-23T13:57:21;13.00;99.90
26342;DHT22;14054;50.108;8.640;2023-02-23T13:59:47;13.10;99.90
26342;DHT22;14054;50.108;8.640;2023-02-23T14:07:40;13.90;99.90
26342;DHT22;14054;50.108;8.640;2023-02-23T14:10:16;14.20;99.90
26342;DHT22;14054;50.108;8.640;2023-02-23T14:15:48;15.10;99.90
26342;DHT22;14054;50.108;8.640;2023-02-23T14:20:45;14.60;99.90
26342;DHT22;14054;50.108;8.640;2023-02-23T14:25:46;14.00;99.90
26342;DHT22;14054;50.108;8.640;2023-02-23T14:31:01;14.10;99.90
26342;DHT22;14054;50.108;8.640;2023-02-23T14:33:33;14.30;99.90
26342;DHT22;14054;50.108;8.640;2023-02-23T14:35:59;14.80;99.90
26342;DHT22;14054;50.108;8.640;2023-02-23T14:38:31;15.00;99.90
26342;DHT22;14054;50.108;8.640;2023-02-23T14:40:58;15.20;99.90
26342;DHT22;14054;50.108;8.640;2023-02-23T14:45:57;15.30;99.90
26342;DHT22;14054;50.108;8.640;2023-02-23T14:48:24;15.10;99.90
26342;DHT22;14054;50.108;8.640;2023-02-23T14:50:50;14.70;99.90
26342;DHT22;14054;50.108;8.640;2023-02-23T14:53:19;14.40;99.90
26342;DHT22;14054;50.108;8.640;2023-02-23T14:55:45;14.20;99.90
26342;DHT22;14054;50.108;8.640;2023-02-23T14:58:20;14.20;99.90
26342;DHT22;14054;50.108;8.640;2023-02-23T15:00:46;14.00;99.90
26342;DHT22;14054;50.108;8.640;2023-02-23T15:03:13;13.80;99.90
26342;DHT22;14054;50.108;8.640;2023-02-23T15:05:42;13.80;99.90
26342;DHT22;14054;50.108;8.640;2023-02-23T15:08:10;13.70;99.90
26342;DHT22;14054;50.108;8.640;2023-02-23T15:10:40;13.50;99.90
26342;DHT22;14054;50.108;8.640;2023-02-23T15:13:19;13.50;99.90
26342;DHT22;14054;50.108;8.640;2023-02-23T15:15:50;13.40;99.90
26342;DHT22;14054;50.108;8.640;2023-02-23T15:18:18;13.10;99.90
26342;DHT22;14054;50.108;8.640;2023-02-23T15:20:46;13.00;99.90
26342;DHT22;14054;50.108;8.640;2023-02-23T15:23:12;12.90;99.90
26342;DHT22;14054;50.108;8.640;2023-02-23T15:25:41;12.90;99.90
26342;DHT22;14054;50.108;8.640;2023-02-23T15:28:09;12.80;99.90
26342;DHT22;14054;50.108;8.640;2023-02-23T15:30:44;12.70;99.90
26342;DHT22;14054;50.108;8.640;2023-02-23T15:33:10;12.70;99.90
26342;DHT22;14054;50.108;8.640;2023-02-23T15:35:47;12.70;99.90
26342;DHT22;14054;50.108;8.640;2023-02-23T15:38:19;12.60;99.90
26342;DHT22;14054;50.108;8.640;2023-02-23T15:40:45;12.50;99.90
26342;DHT22;14054;50.108;8.640;2023-02-23T15:43:11;12.30;99.90
26342;DHT22;14054;50.108;8.640;2023-02-23T15:45:38;12.40;99.90
26342;DHT22;14054;50.108;8.640;2023-02-23T15:48:09;12.30;99.90
26342;DHT22;14054;50.108;8.640;2023-02-23T15:50:40;12.30;99.90
26342;DHT22;14054;50.108;8.640;2023-02-23T15:53:07;12.10;99.90
26342;DHT22;14054;50.108;8.640;2023-02-23T15:55:40;12.10;99.90
26342;DHT22;14054;50.108;8.640;2023-02-23T15:58:25;12.10;99.90
26342;DHT22;14054;50.108;8.640;2023-02-23T16:00:55;12.00;99.90
26342;DHT22;14054;50.108;8.640;2023-02-23T16:03:24;12.00;99.90
26342;DHT22;14054;50.108;8.640;2023-02-23T16:05:54;12.00;99.90
26342;DHT22;14054;50.108;8.640;2023-02-23T16:08:22;11.90;99.90
26342;DHT22;14054;50.108;8.640;2023-02-23T16:10:48;11.90;99.90
26342;DHT22;14054;50.108;8.640;2023-02-23T16:13:19;11.90;99.90
26342;DHT22;14054;50.108;8.640;2023-02-23T16:15:44;11.80;99.90
26342;DHT22;14054;50.108;8.640;2023-02-23T16:18:18;11.80;99.90
26342;DHT22;14054;50.108;8.640;2023-02-23T16:23:16;11.70;99.90
26342;DHT22;14054;50.108;8.640;2023-02-23T16:25:47;11.70;99.90
26342;DHT22;14054;50.108;8.640;2023-02-23T16:28:16;11.70;99.90
26342;DHT22;14054;50.108;8.640;2023-02-23T16:30:43;11.60;99.90
26342;DHT22;14054;50.108;8.640;2023-02-23T16:33:19;11.70;99.90
26342;DHT22;14054;50.108;8.640;2023-02-23T16:35:46;11.60;99.90
26342;DHT22;14054;50.108;8.640;2023-02-23T16:38:13;11.60;99.90
26342;DHT22;14054;50.108;8.640;2023-02-23T16:40:39;11.60;99.90
26342;DHT22;14054;50.108;8.640;2023-02-23T16:43:05;11.60;99.90
26342;DHT22;14054;50.108;8.640;2023-02-23T16:45:30;11.60;99.90
26342;DHT22;14054;50.108;8.640;2023-02-23T16:47:56;11.50;99.90
26342;DHT22;14054;50.108;8.640;2023-02-23T16:50:28;11.50;99.90
26342;DHT22;14054;50.108;8.640;2023-02-23T16:52:54;11.40;99.90
26342;DHT22;14054;50.108;8.640;2023-02-23T16:55:21;11.40;99.90
26342;DHT22;14054;50.108;8.640;2023-02-23T16:57:51;11.50;99.90
26342;DHT22;14054;50.108;8.640;2023-02-23T17:00:26;11.40;99.90
26342;DHT22;14054;50.108;8.640;2023-02-23T17:02:53;11.40;99.90
26342;DHT22;14054;50.108;8.640;2023-02-23T17:05:20;11.40;99.90
26342;DHT22;14054;50.108;8.640;2023-02-23T17:07:48;11.30;99.90
26342;DHT22;14054;50.108;8.640;2023-02-23T17:10:21;11.30;99.90
26342;DHT22;14054;50.108;8.640;2023-02-23T17:12:51;11.30;99.90
26342;DHT22;14054;50.108;8.640;2023-02-23T17:15:16;11.20;99.90
26342;DHT22;14054;50.108;8.640;2023-02-23T17:17:43;11.20;99.90
26342;DHT22;14054;50.108;8.640;2023-02-23T17:20:08;11.20;99.90
26342;DHT22;14054;50.108;8.640;2023-02-23T17:22:40;11.20;99.90
26342;DHT22;14054;50.108;8.640;2023-02-23T17:25:05;11.10;99.90